sensor_id;sensor_type;location;lat;lon;timestamp;P1;durP1;ratioP1;P2;durP2;ratioP2
7199;SDS011;3641;49.082;8.200;2024-01-15T00:02:26;55.28;;;18.15;;
7199;SDS011;3641;49.082;8.200;2024-01-15T00:04:52;62.13;;;19.17;;
7199;SDS011;3641;49.082;8.200;2024-01-15T00:07:19;56.75;;;19.25;;
7199;SDS011;3641;49.082;8.200;2024-01-15T00:09:45;56.50;;;19.42;;
7199;SDS011;3641;49.082;8.200;2024-01-15T00:12:11;58.38;;;20.15;;
7199;SDS011;3641;49.082;8.200;2024-01-15T00:14:38;59.55;;;20.08;;
7199;SDS011;3641;49.082;8.200;2024-01-15T00:17:04;56.45;;;18.95;;
7199;SDS011;3641;49.082;8.200;2024-01-15T00:19:32;55.22;;;18.13;;
7199;SDS011;3641;49.082;8.200;2024-01-15T00:21:58;55.78;;;19.42;;
7199;SDS011;3641;49.082;8.200;2024-01-15T00:24:25;56.15;;;19.10;;
7199;SDS011;3641;49.082;8.200;2024-01-15T00:26:51;50.17;;;18.42;;
7199;SDS011;3641;49.082;8.200;2024-01-15T00:29:18;58.63;;;18.42;;
7199;SDS011;3641;49.082;8.200;2024-01-15T00:31:44;55.58;;;18.85;;
7199;SDS011;3641;49.082;8.200;2024-01-15T00:34:11;55.65;;;18.73;;
7199;SDS011;3641;49.082;8.200;2024-01-15T00:36:39;53.78;;;16.60;;
7199;SDS011;3641;49.082;8.200;2024-01-15T00:39:05;51.47;;;17.73;;
7199;SDS011;3641;49.082;8.200;2024-01-15T00:41:32;48.42;;;17.35;;
7199;SDS011;3641;49.082;8.200;2024-01-15T00:43:58;49.10;;;17.40;;
7199;SDS011;3641;49.082;8.200;2024-01-15T00:46:24;44.13;;;16.13;;
7199;SDS011;3641;49.082;8.200;2024-01-15T00:48:51;44.25;;;16.42;;
7199;SDS011;3641;49.082;8.200;2024-01-15T00:51:17;45.58;;;15.75;;
7199;SDS011;3641;49.082;8.200;2024-01-15T00:53:45;49.80;;;16.20;;
7199;SDS011;3641;49.082;8.200;2024-01-15T00:56:11;48.03;;;17.02;;
7199;SDS011;3641;49.082;8.200;2024-01-15T00:58:38;49.75;;;14.90;;
7199;SDS011;3641;49.082;8.200;2024-01-15T01:01:04;39.53;;;15.07;;
7199;SDS011;3641;49.082;8.200;2024-01-15T01:03:30;42.63;;;15.57;;
7199;SDS011;3641;49.082;8.200;2024-01-15T01:05:57;46.85;;;16.50;;
7199;SDS011;3641;49.082;8.200;2024-01-15T01:08:23;47.67;;;17.20;;
7199;SDS011;3641;49.082;8.200;2024-01-15T01:10:51;45.22;;;16.50;;
7199;SDS011;3641;49.082;8.200;2024-01-15T01:13:17;47.17;;;16.35;;
7199;SDS011;3641;49.082;8.200;2024-01-15T01:15:44;46.28;;;16.55;;
7199;SDS011;3641;49.082;8.200;2024-01-15T01:18:10;47.17;;;16.55;;
7199;SDS011;3641;49.082;8.200;2024-01-15T01:20:37;45.08;;;15.77;;
7199;SDS011;3641;49.082;8.200;2024-01-15T01:23:03;53.67;;;17.25;;
7199;SDS011;3641;49.082;8.200;2024-01-15T01:25:30;48.65;;;17.20;;
7199;SDS011;3641;49.082;8.200;2024-01-15T01:27:57;50.25;;;17.83;;
7199;SDS011;3641;49.082;8.200;2024-01-15T01:30:24;50.03;;;16.90;;
7199;SDS011;3641;49.082;8.200;2024-01-15T01:32:50;58.83;;;19.20;;
7199;SDS011;3641;49.082;8.200;2024-01-15T01:35:17;50.47;;;16.80;;
7199;SDS011;3641;49.082;8.200;2024-01-15T01:37:43;47.13;;;17.58;;
7199;SDS011;3641;49.082;8.200;2024-01-15T01:40:10;48.22;;;16.25;;
7199;SDS011;3641;49.082;8.200;2024-01-15T01:42:36;54.53;;;17.52;;
7199;SDS011;3641;49.082;8.200;2024-01-15T01:45:04;45.90;;;16.85;;
7199;SDS011;3641;49.082;8.200;2024-01-15T01:47:31;48.90;;;17.65;;
7199;SDS011;3641;49.082;8.200;2024-01-15T01:49:57;43.08;;;15.73;;
7199;SDS011;3641;49.082;8.200;2024-01-15T01:52:24;48.97;;;16.88;;
7199;SDS011;3641;49.082;8.200;2024-01-15T01:54:50;46.75;;;16.00;;
7199;SDS011;3641;49.082;8.200;2024-01-15T01:57:18;52.17;;;15.38;;
7199;SDS011;3641;49.082;8.200;2024-01-15T01:59:45;39.47;;;13.93;;
7199;SDS011;3641;49.082;8.200;2024-01-15T02:02:14;42.60;;;14.68;;
7199;SDS011;3641;49.082;8.200;2024-01-15T02:04:42;36.03;;;14.02;;
7199;SDS011;3641;49.082;8.200;2024-01-15T02:07:08;34.30;;;13.18;;
7199;SDS011;3641;49.082;8.200;2024-01-15T02:09:35;36.78;;;13.55;;
7199;SDS011;3641;49.082;8.200;2024-01-15T02:12:02;34.55;;;11.77;;
7199;SDS011;3641;49.082;8.200;2024-01-15T02:14:28;36.63;;;13.63;;
7199;SDS011;3641;49.082;8.200;2024-01-15T02:16:55;33.72;;;12.93;;
7199;SDS011;3641;49.082;8.200;2024-01-15T02:19:22;34.17;;;11.77;;
7199;SDS011;3641;49.082;8.200;2024-01-15T02:21:49;34.67;;;11.70;;
7199;SDS011;3641;49.082;8.200;2024-01-15T02:24:17;31.30;;;11.52;;
7199;SDS011;3641;49.082;8.200;2024-01-15T02:26:43;27.10;;;11.20;;
7199;SDS011;3641;49.082;8.200;2024-01-15T02:29:10;29.98;;;11.77;;
7199;SDS011;3641;49.082;8.200;2024-01-15T02:31:37;32.58;;;11.95;;
7199;SDS011;3641;49.082;8.200;2024-01-15T02:34:04;31.15;;;11.75;;
7199;SDS011;3641;49.082;8.200;2024-01-15T02:36:30;32.17;;;11.98;;
7199;SDS011;3641;49.082;8.200;2024-01-15T02:38:57;33.65;;;11.98;;
7199;SDS011;3641;49.082;8.200;2024-01-15T02:41:24;31.20;;;12.13;;
7199;SDS011;3641;49.082;8.200;2024-01-15T02:43:51;35.58;;;12.98;;
7199;SDS011;3641;49.082;8.200;2024-01-15T02:46:17;33.13;;;11.93;;
7199;SDS011;3641;49.082;8.200;2024-01-15T02:48:43;29.88;;;11.65;;
7199;SDS011;3641;49.082;8.200;2024-01-15T02:51:10;31.33;;;11.80;;
7199;SDS011;3641;49.082;8.200;2024-01-15T02:53:36;32.42;;;11.73;;
7199;SDS011;3641;49.082;8.200;2024-01-15T02:56:03;30.33;;;11.13;;
7199;SDS011;3641;49.082;8.200;2024-01-15T02:58:31;35.45;;;11.50;;
7199;SDS011;3641;49.082;8.200;2024-01-15T03:00:57;31.98;;;12.30;;
7199;SDS011;3641;49.082;8.200;2024-01-15T03:03:24;30.80;;;11.77;;
7199;SDS011;3641;49.082;8.200;2024-01-15T03:05:50;38.30;;;12.93;;
7199;SDS011;3641;49.082;8.200;2024-01-15T03:08:17;33.03;;;12.30;;
7199;SDS011;3641;49.082;8.200;2024-01-15T03:10:43;28.85;;;11.50;;
7199;SDS011;3641;49.082;8.200;2024-01-15T03:13:09;31.60;;;11.98;;
7199;SDS011;3641;49.082;8.200;2024-01-15T03:15:37;32.30;;;12.10;;
7199;SDS011;3641;49.082;8.200;2024-01-15T03:18:04;31.27;;;11.57;;
7199;SDS011;3641;49.082;8.200;2024-01-15T03:20:32;31.15;;;11.70;;
7199;SDS011;3641;49.082;8.200;2024-01-15T03:22:58;32.58;;;11.95;;
7199;SDS011;3641;49.082;8.200;2024-01-15T03:25:25;33.45;;;11.98;;
7199;SDS011;3641;49.082;8.200;2024-01-15T03:27:51;31.80;;;12.40;;
7199;SDS011;3641;49.082;8.200;2024-01-15T03:30:17;30.85;;;11.65;;
7199;SDS011;3641;49.082;8.200;2024-01-15T03:32:45;29.42;;;11.68;;
7199;SDS011;3641;49.082;8.200;2024-01-15T03:35:12;33.80;;;11.73;;
7199;SDS011;3641;49.082;8.200;2024-01-15T03:37:39;31.63;;;12.52;;
7199;SDS011;3641;49.082;8.200;2024-01-15T03:40:06;32.38;;;12.52;;
7199;SDS011;3641;49.082;8.200;2024-01-15T03:42:33;33.42;;;12.15;;
7199;SDS011;3641;49.082;8.200;2024-01-15T03:45:00;29.75;;;11.60;;
7199;SDS011;3641;49.082;8.200;2024-01-15T03:47:26;32.72;;;12.60;;
7199;SDS011;3641;49.082;8.200;2024-01-15T03:49:54;34.15;;;12.60;;
7199;SDS011;3641;49.082;8.200;2024-01-15T03:52:20;35.88;;;13.63;;
7199;SDS011;3641;49.082;8.200;2024-01-15T03:54:47;33.45;;;13.02;;
7199;SDS011;3641;49.082;8.200;2024-01-15T03:57:13;34.28;;;12.90;;
7199;SDS011;3641;49.082;8.200;2024-01-15T03:59:40;35.17;;;13.15;;
7199;SDS011;3641;49.082;8.200;2024-01-15T04:02:06;36.08;;;13.25;;
7199;SDS011;3641;49.082;8.200;2024-01-15T04:04:33;33.20;;;12.52;;
7199;SDS011;3641;49.082;8.200;2024-01-15T04:07:00;32.83;;;13.65;;
7199;SDS011;3641;49.082;8.200;2024-01-15T04:09:27;37.15;;;12.90;;
7199;SDS011;3641;49.082;8.200;2024-01-15T04:11:53;38.63;;;13.75;;
7199;SDS011;3641;49.082;8.200;2024-01-15T04:14:19;36.63;;;13.43;;
7199;SDS011;3641;49.082;8.200;2024-01-15T04:16:46;35.42;;;13.20;;
7199;SDS011;3641;49.082;8.200;2024-01-15T04:19:12;36.83;;;12.60;;
7199;SDS011;3641;49.082;8.200;2024-01-15T04:21:39;36.47;;;13.98;;
7199;SDS011;3641;49.082;8.200;2024-01-15T04:24:07;35.15;;;13.43;;
7199;SDS011;3641;49.082;8.200;2024-01-15T04:26:33;40.03;;;13.77;;
7199;SDS011;3641;49.082;8.200;2024-01-15T04:28:59;36.45;;;14.07;;
7199;SDS011;3641;49.082;8.200;2024-01-15T04:31:26;37.13;;;13.02;;
7199;SDS011;3641;49.082;8.200;2024-01-15T04:33:52;38.95;;;14.20;;
7199;SDS011;3641;49.082;8.200;2024-01-15T04:36:19;36.40;;;13.55;;
7199;SDS011;3641;49.082;8.200;2024-01-15T04:38:45;36.78;;;13.35;;
7199;SDS011;3641;49.082;8.200;2024-01-15T04:41:13;33.55;;;12.52;;
7199;SDS011;3641;49.082;8.200;2024-01-15T04:43:40;33.88;;;13.45;;
7199;SDS011;3641;49.082;8.200;2024-01-15T04:46:06;36.00;;;11.20;;
7199;SDS011;3641;49.082;8.200;2024-01-15T04:48:33;32.58;;;12.73;;
7199;SDS011;3641;49.082;8.200;2024-01-15T04:50:59;32.63;;;13.23;;
7199;SDS011;3641;49.082;8.200;2024-01-15T04:53:26;33.10;;;13.48;;
7199;SDS011;3641;49.082;8.200;2024-01-15T04:55:52;34.28;;;13.27;;
7199;SDS011;3641;49.082;8.200;2024-01-15T04:58:20;35.97;;;14.18;;
7199;SDS011;3641;49.082;8.200;2024-01-15T05:00:49;39.70;;;13.80;;
7199;SDS011;3641;49.082;8.200;2024-01-15T05:03:16;32.15;;;12.30;;
7199;SDS011;3641;49.082;8.200;2024-01-15T05:05:42;32.40;;;12.65;;
7199;SDS011;3641;49.082;8.200;2024-01-15T05:08:09;33.80;;;13.45;;
7199;SDS011;3641;49.082;8.200;2024-01-15T05:10:35;35.15;;;13.75;;
7199;SDS011;3641;49.082;8.200;2024-01-15T05:13:02;37.65;;;13.60;;
7199;SDS011;3641;49.082;8.200;2024-01-15T05:15:29;35.25;;;13.57;;
7199;SDS011;3641;49.082;8.200;2024-01-15T05:17:56;33.05;;;14.02;;
7199;SDS011;3641;49.082;8.200;2024-01-15T05:20:22;38.30;;;14.57;;
7199;SDS011;3641;49.082;8.200;2024-01-15T05:22:49;37.65;;;14.23;;
7199;SDS011;3641;49.082;8.200;2024-01-15T05:25:15;37.40;;;13.45;;
7199;SDS011;3641;49.082;8.200;2024-01-15T05:27:41;40.88;;;14.35;;
7199;SDS011;3641;49.082;8.200;2024-01-15T05:30:08;41.30;;;14.82;;
7199;SDS011;3641;49.082;8.200;2024-01-15T05:32:37;43.80;;;15.23;;
7199;SDS011;3641;49.082;8.200;2024-01-15T05:35:03;36.90;;;14.02;;
7199;SDS011;3641;49.082;8.200;2024-01-15T05:37:30;38.97;;;14.65;;
7199;SDS011;3641;49.082;8.200;2024-01-15T05:39:57;37.47;;;14.38;;
7199;SDS011;3641;49.082;8.200;2024-01-15T05:42:23;36.58;;;14.00;;
7199;SDS011;3641;49.082;8.200;2024-01-15T05:44:50;36.42;;;14.20;;
7199;SDS011;3641;49.082;8.200;2024-01-15T05:47:16;37.65;;;14.88;;
7199;SDS011;3641;49.082;8.200;2024-01-15T05:49:45;39.05;;;15.27;;
7199;SDS011;3641;49.082;8.200;2024-01-15T05:52:11;35.83;;;14.18;;
7199;SDS011;3641;49.082;8.200;2024-01-15T05:54:37;37.28;;;15.13;;
7199;SDS011;3641;49.082;8.200;2024-01-15T05:57:04;35.65;;;14.55;;
7199;SDS011;3641;49.082;8.200;2024-01-15T05:59:30;37.92;;;14.75;;
7199;SDS011;3641;49.082;8.200;2024-01-15T06:01:59;36.28;;;15.02;;
7199;SDS011;3641;49.082;8.200;2024-01-15T06:04:25;36.60;;;14.88;;
7199;SDS011;3641;49.082;8.200;2024-01-15T06:06:53;40.20;;;14.30;;
7199;SDS011;3641;49.082;8.200;2024-01-15T06:09:19;34.92;;;14.40;;
7199;SDS011;3641;49.082;8.200;2024-01-15T06:11:46;32.78;;;13.82;;
7199;SDS011;3641;49.082;8.200;2024-01-15T06:14:12;37.35;;;13.10;;
7199;SDS011;3641;49.082;8.200;2024-01-15T06:16:39;36.88;;;14.30;;
7199;SDS011;3641;49.082;8.200;2024-01-15T06:19:05;39.25;;;14.57;;
7199;SDS011;3641;49.082;8.200;2024-01-15T06:21:32;37.63;;;14.73;;
7199;SDS011;3641;49.082;8.200;2024-01-15T06:23:59;30.33;;;13.88;;
7199;SDS011;3641;49.082;8.200;2024-01-15T06:26:26;37.03;;;14.20;;
7199;SDS011;3641;49.082;8.200;2024-01-15T06:28:52;38.47;;;14.27;;
7199;SDS011;3641;49.082;8.200;2024-01-15T06:31:19;34.88;;;13.70;;
7199;SDS011;3641;49.082;8.200;2024-01-15T06:33:45;35.28;;;15.30;;
7199;SDS011;3641;49.082;8.200;2024-01-15T06:36:13;35.63;;;14.27;;
7199;SDS011;3641;49.082;8.200;2024-01-15T06:38:41;36.53;;;15.27;;
7199;SDS011;3641;49.082;8.200;2024-01-15T06:41:08;36.78;;;14.30;;
7199;SDS011;3641;49.082;8.200;2024-01-15T06:43:35;36.22;;;14.30;;
7199;SDS011;3641;49.082;8.200;2024-01-15T06:46:01;35.78;;;13.52;;
7199;SDS011;3641;49.082;8.200;2024-01-15T06:48:28;31.63;;;14.02;;
7199;SDS011;3641;49.082;8.200;2024-01-15T06:50:54;34.83;;;14.00;;
7199;SDS011;3641;49.082;8.200;2024-01-15T06:53:21;35.47;;;14.90;;
7199;SDS011;3641;49.082;8.200;2024-01-15T06:55:47;34.83;;;14.90;;
7199;SDS011;3641;49.082;8.200;2024-01-15T06:58:17;33.97;;;13.85;;
7199;SDS011;3641;49.082;8.200;2024-01-15T07:00:44;35.72;;;14.65;;
7199;SDS011;3641;49.082;8.200;2024-01-15T07:03:10;36.33;;;14.25;;
7199;SDS011;3641;49.082;8.200;2024-01-15T07:05:36;32.67;;;14.07;;
7199;SDS011;3641;49.082;8.200;2024-01-15T07:08:03;36.15;;;15.00;;
7199;SDS011;3641;49.082;8.200;2024-01-15T07:10:30;34.17;;;13.82;;
7199;SDS011;3641;49.082;8.200;2024-01-15T07:12:56;31.45;;;13.82;;
7199;SDS011;3641;49.082;8.200;2024-01-15T07:15:24;37.83;;;14.55;;
7199;SDS011;3641;49.082;8.200;2024-01-15T07:17:50;32.55;;;13.20;;
7199;SDS011;3641;49.082;8.200;2024-01-15T07:20:17;35.10;;;14.30;;
7199;SDS011;3641;49.082;8.200;2024-01-15T07:22:44;36.60;;;14.75;;
7199;SDS011;3641;49.082;8.200;2024-01-15T07:25:10;33.72;;;13.13;;
7199;SDS011;3641;49.082;8.200;2024-01-15T07:27:37;32.83;;;13.57;;
7199;SDS011;3641;49.082;8.200;2024-01-15T07:30:04;36.22;;;14.50;;
7199;SDS011;3641;49.082;8.200;2024-01-15T07:32:33;35.15;;;13.15;;
7199;SDS011;3641;49.082;8.200;2024-01-15T07:34:59;30.63;;;12.50;;
7199;SDS011;3641;49.082;8.200;2024-01-15T07:37:26;35.53;;;13.82;;
7199;SDS011;3641;49.082;8.200;2024-01-15T07:39:53;33.28;;;13.32;;
7199;SDS011;3641;49.082;8.200;2024-01-15T07:42:20;33.40;;;13.55;;
7199;SDS011;3641;49.082;8.200;2024-01-15T07:44:50;31.63;;;13.32;;
7199;SDS011;3641;49.082;8.200;2024-01-15T07:47:17;33.20;;;13.70;;
7199;SDS011;3641;49.082;8.200;2024-01-15T07:49:45;31.17;;;14.27;;
7199;SDS011;3641;49.082;8.200;2024-01-15T07:52:11;32.38;;;13.40;;
7199;SDS011;3641;49.082;8.200;2024-01-15T07:54:38;33.50;;;13.20;;
7199;SDS011;3641;49.082;8.200;2024-01-15T07:57:05;29.95;;;13.88;;
7199;SDS011;3641;49.082;8.200;2024-01-15T07:59:31;35.78;;;14.48;;
7199;SDS011;3641;49.082;8.200;2024-01-15T08:01:58;33.55;;;13.88;;
7199;SDS011;3641;49.082;8.200;2024-01-15T08:04:25;37.70;;;14.27;;
7199;SDS011;3641;49.082;8.200;2024-01-15T08:06:53;33.60;;;13.80;;
7199;SDS011;3641;49.082;8.200;2024-01-15T08:09:18;31.75;;;13.40;;
7199;SDS011;3641;49.082;8.200;2024-01-15T08:11:45;35.17;;;13.27;;
7199;SDS011;3641;49.082;8.200;2024-01-15T08:14:11;38.22;;;13.93;;
7199;SDS011;3641;49.082;8.200;2024-01-15T08:16:38;33.70;;;13.15;;
7199;SDS011;3641;49.082;8.200;2024-01-15T08:19:05;32.28;;;12.75;;
7199;SDS011;3641;49.082;8.200;2024-01-15T08:21:32;30.55;;;13.30;;
7199;SDS011;3641;49.082;8.200;2024-01-15T08:24:02;34.10;;;13.82;;
7199;SDS011;3641;49.082;8.200;2024-01-15T08:26:29;28.88;;;13.15;;
7199;SDS011;3641;49.082;8.200;2024-01-15T08:28:55;31.73;;;13.07;;
7199;SDS011;3641;49.082;8.200;2024-01-15T08:31:22;31.52;;;13.13;;
7199;SDS011;3641;49.082;8.200;2024-01-15T08:33:49;35.38;;;14.00;;
7199;SDS011;3641;49.082;8.200;2024-01-15T08:36:15;30.25;;;13.13;;
7199;SDS011;3641;49.082;8.200;2024-01-15T08:38:42;33.13;;;13.95;;
7199;SDS011;3641;49.082;8.200;2024-01-15T08:41:11;35.03;;;13.25;;
7199;SDS011;3641;49.082;8.200;2024-01-15T08:43:37;34.33;;;13.07;;
7199;SDS011;3641;49.082;8.200;2024-01-15T08:46:04;39.28;;;16.70;;
7199;SDS011;3641;49.082;8.200;2024-01-15T08:48:31;38.75;;;14.77;;
7199;SDS011;3641;49.082;8.200;2024-01-15T08:50:57;36.33;;;14.05;;
7199;SDS011;3641;49.082;8.200;2024-01-15T08:53:24;34.00;;;13.88;;
7199;SDS011;3641;49.082;8.200;2024-01-15T08:55:50;33.38;;;13.80;;
7199;SDS011;3641;49.082;8.200;2024-01-15T08:58:18;39.00;;;15.10;;
7199;SDS011;3641;49.082;8.200;2024-01-15T09:00:45;33.20;;;14.02;;
7199;SDS011;3641;49.082;8.200;2024-01-15T09:03:11;33.88;;;13.95;;
7199;SDS011;3641;49.082;8.200;2024-01-15T09:05:38;38.47;;;14.90;;
7199;SDS011;3641;49.082;8.200;2024-01-15T09:08:05;36.28;;;15.43;;
7199;SDS011;3641;49.082;8.200;2024-01-15T09:10:32;32.72;;;13.27;;
7199;SDS011;3641;49.082;8.200;2024-01-15T09:12:58;31.50;;;12.77;;
7199;SDS011;3641;49.082;8.200;2024-01-15T09:15:26;31.02;;;13.13;;
7199;SDS011;3641;49.082;8.200;2024-01-15T09:17:53;35.35;;;13.35;;
7199;SDS011;3641;49.082;8.200;2024-01-15T09:20:19;33.22;;;12.95;;
7199;SDS011;3641;49.082;8.200;2024-01-15T09:22:45;30.70;;;12.98;;
7199;SDS011;3641;49.082;8.200;2024-01-15T09:25:12;34.30;;;14.30;;
7199;SDS011;3641;49.082;8.200;2024-01-15T09:27:38;32.63;;;13.93;;
7199;SDS011;3641;49.082;8.200;2024-01-15T09:30:05;32.78;;;12.35;;
7199;SDS011;3641;49.082;8.200;2024-01-15T09:32:34;31.17;;;13.43;;
7199;SDS011;3641;49.082;8.200;2024-01-15T09:35:01;30.58;;;11.98;;
7199;SDS011;3641;49.082;8.200;2024-01-15T09:37:27;31.42;;;12.85;;
7199;SDS011;3641;49.082;8.200;2024-01-15T09:39:53;31.63;;;13.40;;
7199;SDS011;3641;49.082;8.200;2024-01-15T09:42:20;32.17;;;14.35;;
7199;SDS011;3641;49.082;8.200;2024-01-15T09:44:49;35.38;;;12.90;;
7199;SDS011;3641;49.082;8.200;2024-01-15T09:47:16;32.72;;;13.95;;
7199;SDS011;3641;49.082;8.200;2024-01-15T09:49:45;31.65;;;12.90;;
7199;SDS011;3641;49.082;8.200;2024-01-15T09:52:11;32.45;;;13.25;;
7199;SDS011;3641;49.082;8.200;2024-01-15T09:54:40;32.75;;;14.82;;
7199;SDS011;3641;49.082;8.200;2024-01-15T09:57:09;33.15;;;14.27;;
7199;SDS011;3641;49.082;8.200;2024-01-15T09:59:36;33.22;;;13.88;;
7199;SDS011;3641;49.082;8.200;2024-01-15T10:02:04;31.55;;;13.52;;
7199;SDS011;3641;49.082;8.200;2024-01-15T10:04:33;35.05;;;15.18;;
7199;SDS011;3641;49.082;8.200;2024-01-15T10:07:01;37.03;;;14.98;;
7199;SDS011;3641;49.082;8.200;2024-01-15T10:09:28;32.65;;;13.43;;
7199;SDS011;3641;49.082;8.200;2024-01-15T10:11:55;34.13;;;14.45;;
7199;SDS011;3641;49.082;8.200;2024-01-15T10:14:21;34.00;;;14.50;;
7199;SDS011;3641;49.082;8.200;2024-01-15T10:16:48;34.10;;;14.27;;
7199;SDS011;3641;49.082;8.200;2024-01-15T10:19:14;36.17;;;14.27;;
7199;SDS011;3641;49.082;8.200;2024-01-15T10:21:41;37.75;;;14.85;;
7199;SDS011;3641;49.082;8.200;2024-01-15T10:24:08;36.67;;;15.43;;
7199;SDS011;3641;49.082;8.200;2024-01-15T10:26:35;42.83;;;15.60;;
7199;SDS011;3641;49.082;8.200;2024-01-15T10:29:01;40.03;;;15.88;;
7199;SDS011;3641;49.082;8.200;2024-01-15T10:31:28;37.17;;;16.00;;
7199;SDS011;3641;49.082;8.200;2024-01-15T10:33:54;38.17;;;15.13;;
7199;SDS011;3641;49.082;8.200;2024-01-15T10:36:35;42.10;;;16.48;;
7199;SDS011;3641;49.082;8.200;2024-01-15T10:39:01;39.13;;;16.10;;
7199;SDS011;3641;49.082;8.200;2024-01-15T10:41:29;37.08;;;16.60;;
7199;SDS011;3641;49.082;8.200;2024-01-15T10:43:56;45.05;;;18.10;;
7199;SDS011;3641;49.082;8.200;2024-01-15T10:46:22;43.38;;;16.98;;
7199;SDS011;3641;49.082;8.200;2024-01-15T10:48:49;47.83;;;18.20;;
7199;SDS011;3641;49.082;8.200;2024-01-15T10:51:15;41.28;;;17.98;;
7199;SDS011;3641;49.082;8.200;2024-01-15T10:53:42;48.97;;;19.02;;
7199;SDS011;3641;49.082;8.200;2024-01-15T10:56:10;43.50;;;18.42;;
7199;SDS011;3641;49.082;8.200;2024-01-15T10:58:40;47.40;;;19.17;;
7199;SDS011;3641;49.082;8.200;2024-01-15T11:01:08;47.97;;;19.58;;
7199;SDS011;3641;49.082;8.200;2024-01-15T11:03:35;47.38;;;18.95;;
7199;SDS011;3641;49.082;8.200;2024-01-15T11:06:01;43.65;;;18.85;;
7199;SDS011;3641;49.082;8.200;2024-01-15T11:08:28;48.90;;;19.27;;
7199;SDS011;3641;49.082;8.200;2024-01-15T11:10:55;45.38;;;17.88;;
7199;SDS011;3641;49.082;8.200;2024-01-15T11:13:23;42.65;;;18.52;;
7199;SDS011;3641;49.082;8.200;2024-01-15T11:16:09;50.05;;;19.05;;
7199;SDS011;3641;49.082;8.200;2024-01-15T11:18:37;45.65;;;18.98;;
7199;SDS011;3641;49.082;8.200;2024-01-15T11:21:21;40.83;;;18.10;;
7199;SDS011;3641;49.082;8.200;2024-01-15T11:23:50;45.00;;;18.70;;
7199;SDS011;3641;49.082;8.200;2024-01-15T11:26:27;42.63;;;18.40;;
7199;SDS011;3641;49.082;8.200;2024-01-15T11:29:03;45.95;;;19.25;;
7199;SDS011;3641;49.082;8.200;2024-01-15T11:37:23;45.05;;;18.30;;
7199;SDS011;3641;49.082;8.200;2024-01-15T11:39:50;39.05;;;16.10;;
7199;SDS011;3641;49.082;8.200;2024-01-15T11:42:19;37.97;;;17.38;;
7199;SDS011;3641;49.082;8.200;2024-01-15T11:44:47;40.97;;;17.80;;
7199;SDS011;3641;49.082;8.200;2024-01-15T11:47:15;42.45;;;17.27;;
7199;SDS011;3641;49.082;8.200;2024-01-15T11:52:32;42.85;;;17.35;;
7199;SDS011;3641;49.082;8.200;2024-01-15T11:55:07;38.60;;;16.65;;
7199;SDS011;3641;49.082;8.200;2024-01-15T11:57:40;40.30;;;16.25;;
7199;SDS011;3641;49.082;8.200;2024-01-15T12:00:11;43.55;;;18.38;;
7199;SDS011;3641;49.082;8.200;2024-01-15T12:02:39;39.78;;;17.80;;
7199;SDS011;3641;49.082;8.200;2024-01-15T12:05:06;38.38;;;17.15;;
7199;SDS011;3641;49.082;8.200;2024-01-15T12:07:33;37.15;;;16.50;;
7199;SDS011;3641;49.082;8.200;2024-01-15T12:10:00;37.28;;;16.95;;
7199;SDS011;3641;49.082;8.200;2024-01-15T12:12:27;47.17;;;16.65;;
7199;SDS011;3641;49.082;8.200;2024-01-15T12:15:02;37.88;;;16.17;;
7199;SDS011;3641;49.082;8.200;2024-01-15T12:17:31;33.70;;;15.40;;
7199;SDS011;3641;49.082;8.200;2024-01-15T12:19:57;37.25;;;15.73;;
7199;SDS011;3641;49.082;8.200;2024-01-15T12:22:24;33.25;;;15.40;;
7199;SDS011;3641;49.082;8.200;2024-01-15T12:24:51;39.40;;;14.98;;
7199;SDS011;3641;49.082;8.200;2024-01-15T12:27:17;34.13;;;14.73;;
7199;SDS011;3641;49.082;8.200;2024-01-15T12:29:44;32.50;;;15.48;;
7199;SDS011;3641;49.082;8.200;2024-01-15T12:32:11;29.35;;;13.20;;
7199;SDS011;3641;49.082;8.200;2024-01-15T12:34:39;29.88;;;13.15;;
7199;SDS011;3641;49.082;8.200;2024-01-15T12:37:06;34.50;;;13.85;;
7199;SDS011;3641;49.082;8.200;2024-01-15T12:39:33;31.45;;;12.35;;
7199;SDS011;3641;49.082;8.200;2024-01-15T12:42:00;28.85;;;13.35;;
7199;SDS011;3641;49.082;8.200;2024-01-15T12:44:26;28.92;;;12.48;;
7199;SDS011;3641;49.082;8.200;2024-01-15T12:46:54;31.15;;;12.52;;
7199;SDS011;3641;49.082;8.200;2024-01-15T12:49:20;26.55;;;11.60;;
7199;SDS011;3641;49.082;8.200;2024-01-15T12:51:54;23.88;;;12.00;;
7199;SDS011;3641;49.082;8.200;2024-01-15T12:54:22;27.63;;;12.07;;
7199;SDS011;3641;49.082;8.200;2024-01-15T12:56:49;27.55;;;11.65;;
7199;SDS011;3641;49.082;8.200;2024-01-15T12:59:16;23.38;;;11.27;;
7199;SDS011;3641;49.082;8.200;2024-01-15T13:01:42;24.45;;;10.32;;
7199;SDS011;3641;49.082;8.200;2024-01-15T13:04:09;21.83;;;10.50;;
7199;SDS011;3641;49.082;8.200;2024-01-15T13:06:36;22.38;;;10.65;;
7199;SDS011;3641;49.082;8.200;2024-01-15T13:09:04;20.65;;;10.13;;
7199;SDS011;3641;49.082;8.200;2024-01-15T13:11:31;23.23;;;10.27;;
7199;SDS011;3641;49.082;8.200;2024-01-15T13:13:58;23.38;;;10.55;;
7199;SDS011;3641;49.082;8.200;2024-01-15T13:16:24;19.73;;;9.70;;
7199;SDS011;3641;49.082;8.200;2024-01-15T13:18:52;16.00;;;8.55;;
7199;SDS011;3641;49.082;8.200;2024-01-15T13:21:18;18.60;;;9.73;;
7199;SDS011;3641;49.082;8.200;2024-01-15T13:23:44;19.27;;;9.88;;
7199;SDS011;3641;49.082;8.200;2024-01-15T13:26:12;18.45;;;9.38;;
7199;SDS011;3641;49.082;8.200;2024-01-15T13:28:39;19.30;;;9.35;;
7199;SDS011;3641;49.082;8.200;2024-01-15T13:31:05;20.42;;;9.73;;
7199;SDS011;3641;49.082;8.200;2024-01-15T13:33:33;18.77;;;9.23;;
7199;SDS011;3641;49.082;8.200;2024-01-15T13:36:00;19.45;;;9.60;;
7199;SDS011;3641;49.082;8.200;2024-01-15T13:38:27;18.05;;;9.10;;
7199;SDS011;3641;49.082;8.200;2024-01-15T13:40:59;17.95;;;8.48;;
7199;SDS011;3641;49.082;8.200;2024-01-15T13:43:27;20.83;;;9.60;;
7199;SDS011;3641;49.082;8.200;2024-01-15T13:45:54;19.35;;;9.77;;
7199;SDS011;3641;49.082;8.200;2024-01-15T13:48:20;20.50;;;9.65;;
7199;SDS011;3641;49.082;8.200;2024-01-15T13:50:47;20.42;;;10.23;;
7199;SDS011;3641;49.082;8.200;2024-01-15T13:53:14;16.17;;;9.02;;
7199;SDS011;3641;49.082;8.200;2024-01-15T13:55:41;18.70;;;10.13;;
7199;SDS011;3641;49.082;8.200;2024-01-15T13:58:07;18.35;;;9.80;;
7199;SDS011;3641;49.082;8.200;2024-01-15T14:00:35;18.30;;;8.95;;
7199;SDS011;3641;49.082;8.200;2024-01-15T14:03:01;18.50;;;9.32;;
7199;SDS011;3641;49.082;8.200;2024-01-15T14:05:28;21.60;;;10.50;;
7199;SDS011;3641;49.082;8.200;2024-01-15T14:07:54;20.00;;;10.05;;
7199;SDS011;3641;49.082;8.200;2024-01-15T14:10:21;18.10;;;9.25;;
7199;SDS011;3641;49.082;8.200;2024-01-15T14:12:47;20.05;;;9.82;;
7199;SDS011;3641;49.082;8.200;2024-01-15T14:15:14;18.90;;;9.80;;
7199;SDS011;3641;49.082;8.200;2024-01-15T14:17:42;18.58;;;9.70;;
7199;SDS011;3641;49.082;8.200;2024-01-15T14:20:08;19.40;;;9.43;;
7199;SDS011;3641;49.082;8.200;2024-01-15T14:22:35;18.40;;;8.75;;
7199;SDS011;3641;49.082;8.200;2024-01-15T14:25:02;19.60;;;9.30;;
7199;SDS011;3641;49.082;8.200;2024-01-15T14:27:29;16.45;;;8.88;;
7199;SDS011;3641;49.082;8.200;2024-01-15T14:29:55;15.88;;;8.32;;
7199;SDS011;3641;49.082;8.200;2024-01-15T14:32:22;18.38;;;9.20;;
7199;SDS011;3641;49.082;8.200;2024-01-15T14:34:50;20.17;;;8.40;;
7199;SDS011;3641;49.082;8.200;2024-01-15T14:37:16;16.67;;;7.68;;
7199;SDS011;3641;49.082;8.200;2024-01-15T14:39:43;13.98;;;6.13;;
7199;SDS011;3641;49.082;8.200;2024-01-15T14:42:09;13.82;;;7.30;;
7199;SDS011;3641;49.082;8.200;2024-01-15T14:44:36;19.05;;;8.18;;
7199;SDS011;3641;49.082;8.200;2024-01-15T14:47:04;22.80;;;9.45;;
7199;SDS011;3641;49.082;8.200;2024-01-15T14:49:31;17.23;;;8.13;;
7199;SDS011;3641;49.082;8.200;2024-01-15T14:52:00;17.40;;;8.50;;
7199;SDS011;3641;49.082;8.200;2024-01-15T14:54:26;14.40;;;7.57;;
7199;SDS011;3641;49.082;8.200;2024-01-15T14:56:52;14.90;;;7.25;;